Time;durP1;ratioP1;P1;durP2;ratioP2;P2;SDS_P1;SDS_P2;PMS_P1;PMS_P2;Temp;Humidity;BMP_temperature;BMP_pressure;BME280_temperature;BME280_humidity;BME280_pressure;Samples;Min_cycle;Max_cycle;Signal;HPM_P1;HPM_P2
2021/12/18 00:00:34;;;;;;;;;;;;;;;7.31;95.33;104053.59;4848256;29;19920;-90
2021/12/18 00:02:59;;;;;;;;;;;;;;;7.32;96.14;104058.06;4862284;29;20002;-90
2021/12/18 00:05:25;;;;;;;;;;;;;;;7.32;96.08;104063.34;4862308;29;20306;-90
2021/12/18 00:07:50;;;;;;;;;;;;;;;7.31;96.23;104061.53;4862818;29;19916;-90
2021/12/18 00:10:20;;;;;;;;;;;;;;;7.30;95.92;104051.81;4846958;29;19916;-90
2021/12/18 00:12:49;;;;;;;;;;;;;;;7.32;95.84;104058.06;4863165;29;20328;-91
2021/12/18 00:15:15;;;;;;;;;;;;;;;7.33;95.98;104051.06;4862711;29;20003;-90
2021/12/18 00:17:40;;;;;;;;;;;;;;;7.32;95.65;104050.16;4876961;29;19940;-90
2021/12/18 00:20:06;;;;;;;;;;;;;;;7.33;95.63;104048.41;4845638;29;19920;-90
2021/12/18 00:22:32;;;;;;;;;;;;;;;7.32;95.85;104047.53;4863517;29;19920;-90
2021/12/18 00:24:57;;;;;;;;;;;;;;;7.31;95.18;104045.69;4860735;29;20345;-89
2021/12/18 00:27:22;;;;;;;;;;;;;;;7.30;96.07;104036.00;4844990;29;20381;-90
2021/12/18 00:29:48;;;;;;;;;;;;;;;7.30;95.76;104038.63;4860877;29;19924;-90
2021/12/18 00:32:13;;;;;;;;;;;;;;;7.29;95.30;104043.84;4876571;29;19938;-89
2021/12/18 00:34:39;;;;;;;;;;;;;;;7.27;96.28;104035.88;4861053;29;19916;-90
2021/12/18 00:37:05;;;;;;;;;;;;;;;7.28;95.66;104036.78;4846940;29;19926;-90
2021/12/18 00:39:32;;;;;;;;;;;;;;;7.28;96.13;104029.75;4845121;29;19916;-90
2021/12/18 00:42:18;;;;;;;;;;;;;;;7.28;95.35;104040.31;4876382;29;20325;-90
2021/12/18 00:44:44;;;;;;;;;;;;;;;7.28;95.58;104028.88;4860485;29;19962;-89
2021/12/18 00:47:09;;;;;;;;;;;;;;;7.26;96.26;104020.00;4861246;29;19916;-90
2021/12/18 00:49:35;;;;;;;;;;;;;;;7.27;96.42;104024.41;4866931;29;19919;-90
2021/12/18 00:52:00;;;;;;;;;;;;;;;7.25;95.57;104021.72;4897493;29;19976;-90
2021/12/18 00:54:27;;;;;;;;;;;;;;;7.24;95.93;104019.00;4897341;29;19926;-90
2021/12/18 00:56:52;;;;;;;;;;;;;;;7.21;95.57;104013.63;4881551;29;19919;-90
2021/12/18 00:59:17;;;;;;;;;;;;;;;7.20;95.36;104015.38;4881231;29;19915;-89
2021/12/18 01:01:45;;;;;;;;;;;;;;;7.17;95.29;104012.59;4881949;29;20284;-90
2021/12/18 01:04:10;;;;;;;;;;;;;;;7.17;95.42;104011.66;4898125;29;19911;-90
2021/12/18 01:06:36;;;;;;;;;;;;;;;7.16;96.21;104013.41;4897488;29;19915;-90
2021/12/18 01:09:02;;;;;;;;;;;;;;;7.16;95.03;104015.16;4899326;29;19998;-90
2021/12/18 01:11:33;;;;;;;;;;;;;;;7.16;95.10;104010.78;4881551;29;20030;-90
2021/12/18 01:24:55;;;;;;;;;;;;;;;7.15;95.19;104003.72;4893591;29;19959;-90
2021/12/18 01:27:21;;;;;;;;;;;;;;;7.15;95.40;104000.19;4862316;29;19959;-90
2021/12/18 01:29:46;;;;;;;;;;;;;;;7.14;95.21;104009.81;4877891;29;19922;-90
2021/12/18 01:32:12;;;;;;;;;;;;;;;7.15;95.26;104014.25;4878355;29;19938;-90
2021/12/18 01:34:38;;;;;;;;;;;;;;;7.15;95.45;104006.34;4878930;29;19943;-90
2021/12/18 01:37:04;;;;;;;;;;;;;;;7.14;95.25;104006.28;4848093;29;19972;-89
2021/12/18 01:39:29;;;;;;;;;;;;;;;7.13;95.22;104012.41;4863732;29;20015;-90
2021/12/18 01:44:51;;;;;;;;;;;;;;;7.11;95.20;104007.94;4894537;29;20006;-90
2021/12/18 01:52:38;;;;;;;;;;;;;;;7.13;95.56;104028.22;4892862;29;19927;-89
2021/12/18 01:55:04;;;;;;;;;;;;;;;7.12;95.82;104029.91;4879063;29;19919;-90
2021/12/18 01:57:31;;;;;;;;;;;;;;;7.11;96.05;104033.41;4877620;29;19915;-89
2021/12/18 01:59:56;;;;;;;;;;;;;;;7.13;95.58;104034.38;4877281;29;19916;-90
2021/12/18 02:02:22;;;;;;;;;;;;;;;7.14;95.64;104035.28;4877867;29;19948;-89
2021/12/18 02:04:47;;;;;;;;;;;;;;;7.13;95.77;104038.75;4877431;29;19912;-90
2021/12/18 02:07:14;;;;;;;;;;;;;;;7.13;96.05;104036.13;4877421;29;19916;-89
2021/12/18 02:12:18;;;;;;;;;;;;;;;7.15;95.38;104038.00;4863087;29;19919;-90
2021/12/18 02:20:24;;;;;;;;;;;;;;;7.08;94.92;104030.63;4896115;29;20396;-90
2021/12/18 02:22:50;;;;;;;;;;;;;;;7.06;95.68;104027.94;4880730;29;19920;-90
2021/12/18 02:25:16;;;;;;;;;;;;;;;7.06;94.95;104025.28;4896006;29;19960;-90
2021/12/18 02:27:41;;;;;;;;;;;;;;;7.06;94.93;104024.41;4880536;29;20318;-90
2021/12/18 02:30:08;;;;;;;;;;;;;;;7.05;95.44;104019.97;4880300;29;19958;-89
2021/12/18 02:32:33;;;;;;;;;;;;;;;7.05;95.78;104019.97;4864913;29;20122;-90
2021/12/18 02:35:04;;;;;;;;;;;;;;;7.05;95.34;104017.34;4880546;29;19994;-90
2021/12/18 02:37:32;;;;;;;;;;;;;;;7.05;95.59;104020.88;4865730;29;19926;-90
2021/12/18 02:42:35;;;;;;;;;;;;;;;7.06;95.50;104008.59;4880135;29;20214;-89
2021/12/18 02:45:06;;;;;;;;;;;;;;;7.04;96.32;104011.13;4864651;29;20014;-90
2021/12/18 02:47:31;;;;;;;;;;;;;;;7.04;95.64;104004.97;4849471;29;20311;-90
2021/12/18 02:49:56;;;;;;;;;;;;;;;7.02;95.85;103997.03;4849056;29;19920;-89
2021/12/18 02:52:27;;;;;;;;;;;;;;;7.03;95.38;104004.09;4864273;29;20361;-89
2021/12/18 02:54:52;;;;;;;;;;;;;;;7.03;95.47;103996.19;4864461;29;19916;-90
2021/12/18 02:57:18;;;;;;;;;;;;;;;7.04;95.25;103991.81;4848969;29;20363;-91
2021/12/18 02:59:48;;;;;;;;;;;;;;;7.01;95.59;103989.94;4880132;29;19920;-90
2021/12/18 03:02:15;;;;;;;;;;;;;;;7.01;96.19;103989.94;4895884;29;19926;-90
2021/12/18 03:04:42;;;;;;;;;;;;;;;7.01;95.53;103986.41;4864486;29;19912;-90
2021/12/18 03:07:10;;;;;;;;;;;;;;;7.01;96.20;103987.31;4880944;29;19920;-90
2021/12/18 03:25:34;;;;;;;;;;;;;;;6.99;95.70;103983.69;4881270;29;20339;-90
2021/12/18 03:28:04;;;;;;;;;;;;;;;7.01;95.34;103984.66;4878904;29;19928;-90
2021/12/18 03:30:30;;;;;;;;;;;;;;;6.96;95.60;103983.56;4864678;29;20273;-89
2021/12/18 03:32:55;;;;;;;;;;;;;;;6.96;95.02;103990.59;4848866;29;20039;-90
2021/12/18 03:35:21;;;;;;;;;;;;;;;6.93;95.85;103991.34;4864392;29;19918;-90
2021/12/18 03:37:47;;;;;;;;;;;;;;;6.93;95.81;103991.34;4864010;29;19915;-90
2021/12/18 03:40:14;;;;;;;;;;;;;;;6.90;96.01;103988.59;4879807;29;20003;-90
2021/12/18 03:42:39;;;;;;;;;;;;;;;6.88;95.57;103988.50;4879742;29;20003;-90
2021/12/18 03:45:06;;;;;;;;;;;;;;;6.89;95.71;103992.03;4879647;29;20007;-89
2021/12/18 03:47:31;;;;;;;;;;;;;;;6.89;95.96;103987.66;4863977;29;19938;-89
2021/12/18 03:49:56;;;;;;;;;;;;;;;6.91;96.01;103985.09;4864055;29;19912;-90
2021/12/18 03:52:22;;;;;;;;;;;;;;;6.91;95.94;103990.38;4848484;29;20010;-90
2021/12/18 03:54:48;;;;;;;;;;;;;;;6.89;96.14;103989.41;4879839;29;19945;-90
2021/12/18 03:57:13;;;;;;;;;;;;;;;6.89;96.38;103994.66;4864120;29;20014;-90
2021/12/18 03:59:39;;;;;;;;;;;;;;;6.88;95.81;103992.88;4879387;29;20023;-90
2021/12/18 04:02:04;;;;;;;;;;;;;;;6.87;95.86;103980.53;4879316;29;19916;-90
2021/12/18 04:04:30;;;;;;;;;;;;;;;6.87;96.29;103972.63;4863701;29;19976;-90
2021/12/18 04:06:55;;;;;;;;;;;;;;;6.88;96.31;103977.06;4863722;29;19916;-90
2021/12/18 04:09:21;;;;;;;;;;;;;;;6.87;95.89;103978.81;4863723;29;19918;-89
2021/12/18 04:11:46;;;;;;;;;;;;;;;6.89;95.93;103990.28;4879631;29;19915;-89
2021/12/18 04:14:13;;;;;;;;;;;;;;;6.88;96.26;103984.97;4879492;29;20002;-89
2021/12/18 04:16:38;;;;;;;;;;;;;;;6.88;96.13;103984.97;4879444;29;19919;-90
2021/12/18 04:19:04;;;;;;;;;;;;;;;6.87;96.00;103981.44;4863727;29;20225;-90
2021/12/18 04:21:31;;;;;;;;;;;;;;;6.88;95.75;103980.59;4894658;29;20018;-90
2021/12/18 04:23:57;;;;;;;;;;;;;;;6.91;96.29;103981.56;4878948;29;19983;-90
2021/12/18 04:26:22;;;;;;;;;;;;;;;6.89;96.32;103987.66;4863308;29;20409;-90
2021/12/18 04:28:47;;;;;;;;;;;;;;;6.88;95.75;103984.97;4862974;29;19911;-90
2021/12/18 04:31:13;;;;;;;;;;;;;;;6.86;95.95;103981.38;4878559;29;19916;-90
2021/12/18 04:33:38;;;;;;;;;;;;;;;6.84;96.50;103983.94;4862982;29;20318;-90
2021/12/18 04:36:04;;;;;;;;;;;;;;;6.85;95.58;103996.28;4862996;29;19935;-90
2021/12/18 04:38:30;;;;;;;;;;;;;;;6.85;95.58;103984.84;4862949;29;20034;-90
2021/12/18 04:40:55;;;;;;;;;;;;;;;6.85;96.19;103991.00;4862826;29;20006;-90
2021/12/18 04:43:21;;;;;;;;;;;;;;;6.85;96.79;103987.50;4863040;29;19915;-90
2021/12/18 04:45:46;;;;;;;;;;;;;;;6.85;96.10;103992.75;4847447;29;19941;-90
2021/12/18 04:48:11;;;;;;;;;;;;;;;6.85;96.09;103995.38;4847742;29;19922;-90
2021/12/18 04:50:37;;;;;;;;;;;;;;;6.83;96.47;103990.03;4847648;29;19919;-90
2021/12/18 04:53:02;;;;;;;;;;;;;;;6.84;96.21;104001.47;4862342;29;20340;-90
2021/12/18 04:55:27;;;;;;;;;;;;;;;6.84;96.01;104004.09;4862825;29;19916;-90
2021/12/18 04:57:55;;;;;;;;;;;;;;;6.83;95.88;104003.22;4847134;29;19916;-90
2021/12/18 05:00:22;;;;;;;;;;;;;;;6.83;96.35;104008.47;4862676;29;19923;-90
2021/12/18 05:02:50;;;;;;;;;;;;;;;6.83;96.20;104011.13;4862589;29;20055;-90
2021/12/18 05:05:15;;;;;;;;;;;;;;;6.81;96.63;104010.13;4878045;29;20383;-90
2021/12/18 05:07:41;;;;;;;;;;;;;;;6.81;95.88;104015.41;4846978;29;19923;-91
2021/12/18 05:10:08;;;;;;;;;;;;;;;6.82;96.06;104006.66;4877769;29;19927;-90
2021/12/18 05:12:33;;;;;;;;;;;;;;;6.82;96.44;104017.19;4862701;29;20042;-90
2021/12/18 05:14:58;;;;;;;;;;;;;;;6.82;97.16;104008.41;4862369;29;20046;-90
2021/12/18 05:17:24;;;;;;;;;;;;;;;6.83;96.39;104008.47;4862394;29;20283;-90
2021/12/18 05:19:49;;;;;;;;;;;;;;;6.82;96.30;104009.28;4846921;29;19928;-90
2021/12/18 05:22:15;;;;;;;;;;;;;;;6.84;96.10;104004.09;4862311;29;19916;-90
2021/12/18 05:24:40;;;;;;;;;;;;;;;6.84;96.25;103999.72;4861974;29;20018;-90
2021/12/18 05:27:05;;;;;;;;;;;;;;;6.83;96.02;104000.56;4862254;29;19923;-90
2021/12/18 05:29:31;;;;;;;;;;;;;;;6.83;96.00;104008.47;4877617;29;20023;-90
2021/12/18 05:31:56;;;;;;;;;;;;;;;6.83;96.11;104011.13;4862409;29;19983;-90
2021/12/18 05:34:24;;;;;;;;;;;;;;;6.81;96.57;104010.13;4877779;29;20408;-89
2021/12/18 05:39:22;;;;;;;;;;;;;;;6.82;96.22;104009.28;4892994;29;20406;-91
2021/12/18 05:41:50;;;;;;;;;;;;;;;6.82;96.05;104011.94;4877270;29;19949;-89
2021/12/18 05:44:16;;;;;;;;;;;;;;;6.84;96.39;104010.28;4877441;29;19915;-90
2021/12/18 05:46:41;;;;;;;;;;;;;;;6.85;97.11;104014.72;4877283;29;20384;-90
2021/12/18 05:49:06;;;;;;;;;;;;;;;6.85;96.23;104006.81;4877293;29;19923;-90
2021/12/18 05:51:32;;;;;;;;;;;;;;;6.86;96.33;104007.72;4860959;29;19924;-90
2021/12/18 05:53:57;;;;;;;;;;;;;;;6.87;96.36;104007.81;4877324;29;19923;-90
2021/12/18 05:56:23;;;;;;;;;;;;;;;6.87;96.33;104007.81;4861667;29;19920;-90
2021/12/18 05:58:48;;;;;;;;;;;;;;;6.88;96.13;104008.69;4877149;29;20034;-89
2021/12/18 06:01:14;;;;;;;;;;;;;;;6.88;96.95;104006.94;4876608;29;19919;-90
2021/12/18 06:03:40;;;;;;;;;;;;;;;6.87;96.39;104007.81;4876732;29;19916;-89
2021/12/18 06:06:05;;;;;;;;;;;;;;;6.87;96.92;104007.81;4876396;29;19911;-89
2021/12/18 06:08:32;;;;;;;;;;;;;;;6.88;96.81;103999.03;4876206;29;19915;-89
2021/12/18 06:11:04;;;;;;;;;;;;;;;6.89;96.66;104010.47;4876203;29;19915;-89
2021/12/18 06:13:30;;;;;;;;;;;;;;;6.91;96.52;104002.66;4861847;29;19920;-89
2021/12/18 06:15:55;;;;;;;;;;;;;;;6.91;96.09;103994.75;4845379;29;19948;-89
2021/12/18 06:18:20;;;;;;;;;;;;;;;6.90;96.32;103991.22;4876228;29;19915;-89
2021/12/18 06:20:46;;;;;;;;;;;;;;;6.92;96.43;103997.44;4860756;29;19984;-90
2021/12/18 06:23:11;;;;;;;;;;;;;;;6.92;96.49;103997.44;4861251;29;19924;-89
2021/12/18 06:25:36;;;;;;;;;;;;;;;6.92;96.36;103986.91;4845428;29;19916;-89
2021/12/18 06:28:02;;;;;;;;;;;;;;;6.91;97.12;103986.84;4842259;29;19960;-89
2021/12/18 06:30:27;;;;;;;;;;;;;;;6.89;97.29;103990.28;4827095;29;20016;-88
2021/12/18 06:32:52;;;;;;;;;;;;;;;6.89;96.16;103986.78;4872078;29;20291;-89
2021/12/18 06:35:18;;;;;;;;;;;;;;;6.88;96.95;103996.41;4860961;29;20063;-89
2021/12/18 06:37:43;;;;;;;;;;;;;;;6.89;96.88;103992.03;4876005;29;19936;-89
2021/12/18 06:40:09;;;;;;;;;;;;;;;6.90;96.95;103996.50;4876320;29;20452;-89
2021/12/18 06:42:34;;;;;;;;;;;;;;;6.91;97.16;103990.38;4876515;29;19920;-88
2021/12/18 06:44:59;;;;;;;;;;;;;;;6.92;96.48;103994.78;4861301;29;20299;-89
2021/12/18 06:47:25;;;;;;;;;;;;;;;6.93;97.12;103993.09;4876597;29;19975;-88
2021/12/18 06:49:50;;;;;;;;;;;;;;;6.93;96.70;103986.06;4845706;29;19923;-89
2021/12/18 06:52:15;;;;;;;;;;;;;;;6.93;97.13;103988.72;4860382;29;19919;-89
2021/12/18 06:54:41;;;;;;;;;;;;;;;6.93;96.67;103988.72;4875968;29;20392;-89
2021/12/18 06:57:06;;;;;;;;;;;;;;;6.93;96.67;103988.72;4877207;29;19920;-89
2021/12/18 06:59:32;;;;;;;;;;;;;;;6.94;96.96;103986.97;4868425;29;19920;-89
2021/12/18 07:01:57;;;;;;;;;;;;;;;6.94;97.01;103993.13;4857928;29;20058;-89
2021/12/18 07:04:24;;;;;;;;;;;;;;;6.94;97.00;103985.22;4876198;29;20321;-89
2021/12/18 07:06:50;;;;;;;;;;;;;;;6.95;97.15;103984.41;4876718;29;19973;-89
2021/12/18 07:09:15;;;;;;;;;;;;;;;6.95;97.47;103994.97;4876649;29;20280;-89
2021/12/18 07:11:41;;;;;;;;;;;;;;;6.95;97.16;103988.75;4845904;29;19974;-89
2021/12/18 07:14:06;;;;;;;;;;;;;;;6.94;96.72;103990.50;4871840;29;19962;-89
2021/12/18 07:16:31;;;;;;;;;;;;;;;6.93;96.75;103996.63;4895129;29;19916;-89
2021/12/18 07:18:57;;;;;;;;;;;;;;;6.92;97.25;104000.06;4863742;29;20003;-89
2021/12/18 07:21:22;;;;;;;;;;;;;;;6.89;97.24;103992.94;4864150;29;19931;-89
2021/12/18 07:23:47;;;;;;;;;;;;;;;6.89;97.09;103999.94;4880945;29;19912;-89
2021/12/18 07:26:13;;;;;;;;;;;;;;;6.88;96.28;104001.69;4863492;29;20029;-89
2021/12/18 07:28:39;;;;;;;;;;;;;;;6.89;97.15;104005.22;4879151;29;20312;-89
2021/12/18 07:31:04;;;;;;;;;;;;;;;6.88;96.80;103991.16;4880603;29;20364;-89
2021/12/18 07:33:29;;;;;;;;;;;;;;;6.87;97.54;103992.00;4864278;29;20135;-89
2021/12/18 07:35:55;;;;;;;;;;;;;;;6.87;97.27;103999.91;4880596;29;19926;-88
2021/12/18 07:38:20;;;;;;;;;;;;;;;6.86;96.46;103998.06;4879239;29;19916;-87
2021/12/18 07:40:46;;;;;;;;;;;;;;;6.85;96.52;103998.91;4860280;29;19931;-86
2021/12/18 07:43:11;;;;;;;;;;;;;;;6.85;96.79;103993.66;4844966;29;19915;-86
2021/12/18 07:45:37;;;;;;;;;;;;;;;6.86;96.66;104007.72;4845121;29;20380;-86
2021/12/18 07:48:02;;;;;;;;;;;;;;;6.85;96.42;104013.84;4845021;29;19930;-86
2021/12/18 07:50:28;;;;;;;;;;;;;;;6.84;96.73;104012.00;4844818;29;19920;-87
2021/12/18 07:52:53;;;;;;;;;;;;;;;6.84;97.23;104014.66;4861909;29;20368;-87
2021/12/18 07:55:19;;;;;;;;;;;;;;;6.84;96.45;104015.53;4860007;29;19920;-86
2021/12/18 07:57:44;;;;;;;;;;;;;;;6.86;97.13;104012.97;4875851;29;19920;-87
2021/12/18 08:00:12;;;;;;;;;;;;;;;6.86;96.76;104005.97;4859676;29;19931;-87
2021/12/18 08:02:38;;;;;;;;;;;;;;;6.86;97.35;104010.34;4875419;29;19916;-87
2021/12/18 08:05:04;;;;;;;;;;;;;;;6.86;96.94;104013.88;4861340;29;20411;-87
2021/12/18 08:07:29;;;;;;;;;;;;;;;6.87;97.49;104009.50;4861303;29;19916;-87
2021/12/18 08:09:54;;;;;;;;;;;;;;;6.86;97.20;104005.97;4849950;29;19939;-86
2021/12/18 08:12:20;;;;;;;;;;;;;;;6.87;97.48;104010.44;4863067;29;19935;-86
2021/12/18 08:14:45;;;;;;;;;;;;;;;6.87;96.85;104001.59;4862482;29;19920;-87
2021/12/18 08:17:11;;;;;;;;;;;;;;;6.86;97.63;104011.25;4878608;29;20339;-86
2021/12/18 08:19:36;;;;;;;;;;;;;;;6.87;97.10;104009.50;4893781;29;20229;-87
2021/12/18 08:22:01;;;;;;;;;;;;;;;6.86;97.11;104005.97;4862115;29;19912;-86
2021/12/18 08:24:27;;;;;;;;;;;;;;;6.89;97.00;104010.47;4878042;29;19968;-86
2021/12/18 08:26:52;;;;;;;;;;;;;;;6.88;97.01;104001.69;4876662;29;19948;-86
2021/12/18 08:29:17;;;;;;;;;;;;;;;6.88;97.23;104004.31;4879990;29;20299;-87
2021/12/18 08:31:43;;;;;;;;;;;;;;;6.88;97.11;104013.97;4860527;29;19916;-87
2021/12/18 08:34:08;;;;;;;;;;;;;;;6.89;97.41;104010.47;4874832;29;20011;-87
2021/12/18 08:36:34;;;;;;;;;;;;;;;6.89;97.16;104013.13;4874647;29;19948;-87
2021/12/18 08:38:59;;;;;;;;;;;;;;;6.90;97.44;104001.75;4843800;29;19967;-87
2021/12/18 08:41:27;;;;;;;;;;;;;;;6.90;97.11;104004.41;4843588;29;20342;-87
2021/12/18 08:43:52;;;;;;;;;;;;;;;6.89;97.30;104006.09;4859145;29;20276;-87
2021/12/18 08:46:18;;;;;;;;;;;;;;;6.89;97.27;104006.09;4874486;29;19916;-87
2021/12/18 08:48:43;;;;;;;;;;;;;;;6.90;96.84;104012.28;4874417;29;19952;-88
2021/12/18 08:51:08;;;;;;;;;;;;;;;6.91;97.40;104011.44;4858872;29;20388;-87
2021/12/18 08:53:34;;;;;;;;;;;;;;;6.91;96.77;104013.19;4874166;29;20359;-87
2021/12/18 08:55:59;;;;;;;;;;;;;;;6.93;97.53;104016.81;4858734;29;19948;-87
2021/12/18 08:58:25;;;;;;;;;;;;;;;6.93;97.49;104015.06;4858896;29;19923;-88
2021/12/18 09:00:50;;;;;;;;;;;;;;;6.94;97.37;104010.69;4861281;29;19924;-87
2021/12/18 09:03:15;;;;;;;;;;;;;;;6.93;97.03;104009.78;4878215;29;19920;-87
2021/12/18 09:05:41;;;;;;;;;;;;;;;6.93;96.87;104008.91;4878595;29;19940;-88
2021/12/18 09:08:07;;;;;;;;;;;;;;;6.92;97.07;104002.69;4861472;29;19923;-88
2021/12/18 09:10:32;;;;;;;;;;;;;;;6.93;96.63;104009.78;4877190;29;20429;-88
2021/12/18 09:12:58;;;;;;;;;;;;;;;6.95;97.81;104012.47;4876980;29;19915;-87
2021/12/18 09:15:23;;;;;;;;;;;;;;;6.97;97.48;104006.44;4877120;29;19964;-87
2021/12/18 09:17:49;;;;;;;;;;;;;;;7.00;97.36;104013.59;4878170;29;19975;-87
2021/12/18 09:20:15;;;;;;;;;;;;;;;7.00;97.04;104009.22;4877971;29;19942;-88
2021/12/18 09:22:40;;;;;;;;;;;;;;;7.00;97.35;104009.22;4892423;29;19927;-87
2021/12/18 09:25:06;;;;;;;;;;;;;;;7.02;96.93;104015.47;4845545;29;19916;-87
2021/12/18 09:27:32;;;;;;;;;;;;;;;7.02;96.79;104019.81;4876478;29;19931;-87
2021/12/18 09:29:57;;;;;;;;;;;;;;;7.02;97.28;104011.91;4861021;29;19968;-87
2021/12/18 09:32:23;;;;;;;;;;;;;;;7.00;96.71;104017.13;4876295;29;19920;-85
2021/12/18 09:34:48;;;;;;;;;;;;;;;6.97;97.35;104011.72;4892016;29;20272;-87
2021/12/18 09:37:14;;;;;;;;;;;;;;;6.96;97.08;104011.66;4876197;29;19924;-87
2021/12/18 09:39:39;;;;;;;;;;;;;;;6.98;97.14;104012.63;4866332;29;19916;-87
2021/12/18 09:42:05;;;;;;;;;;;;;;;6.97;96.58;104016.97;4858987;29;19916;-86
2021/12/18 09:44:31;;;;;;;;;;;;;;;6.97;97.05;104008.19;4873506;29;19912;-88
2021/12/18 09:46:58;;;;;;;;;;;;;;;6.97;97.00;104009.06;4873144;29;19923;-87
2021/12/18 09:49:23;;;;;;;;;;;;;;;6.99;97.27;104009.16;4873426;29;19976;-87
2021/12/18 09:51:49;;;;;;;;;;;;;;;7.00;96.98;104008.34;4872831;29;20023;-87
2021/12/18 09:54:15;;;;;;;;;;;;;;;7.02;96.81;104002.31;4873178;29;19916;-87
2021/12/18 09:56:40;;;;;;;;;;;;;;;7.03;96.90;104004.09;4873554;29;19920;-87
2021/12/18 09:59:06;;;;;;;;;;;;;;;7.03;96.99;103998.81;4877999;29;19916;-87
2021/12/18 10:01:32;;;;;;;;;;;;;;;7.04;96.97;103997.97;4860835;29;19924;-87
2021/12/18 10:03:59;;;;;;;;;;;;;;;7.05;97.10;104005.06;4860569;29;19983;-87
2021/12/18 10:06:28;;;;;;;;;;;;;;;7.03;96.93;103998.81;4891527;29;19994;-87
2021/12/18 10:08:53;;;;;;;;;;;;;;;7.01;96.90;103999.59;4876137;29;19912;-87
2021/12/18 10:11:18;;;;;;;;;;;;;;;7.01;97.00;103995.22;4860531;29;20026;-87
2021/12/18 10:13:51;;;;;;;;;;;;;;;7.02;96.94;103990.84;4875926;29;19915;-88
2021/12/18 10:16:17;;;;;;;;;;;;;;;7.02;97.03;103991.75;4876123;29;19959;-87
2021/12/18 10:18:42;;;;;;;;;;;;;;;7.02;97.60;103991.75;4876414;29;19962;-88
2021/12/18 10:21:16;;;;;;;;;;;;;;;7.04;97.12;103991.81;4860661;29;19923;-87
2021/12/18 10:23:42;;;;;;;;;;;;;;;7.07;97.41;103987.59;4860681;29;20368;-87
2021/12/18 10:26:27;;;;;;;;;;;;;;;7.10;97.56;103992.09;4860666;29;20419;-87
2021/12/18 10:28:52;;;;;;;;;;;;;;;7.14;96.81;103993.09;4860836;29;19967;-88
2021/12/18 10:31:36;;;;;;;;;;;;;;;7.15;96.90;103987.00;4845149;29;19916;-88
2021/12/18 10:34:20;;;;;;;;;;;;;;;7.15;96.53;103979.09;4876105;29;20373;-88
2021/12/18 10:37:04;;;;;;;;;;;;;;;7.15;97.15;103981.75;4876606;29;20380;-88
2021/12/18 10:39:30;;;;;;;;;;;;;;;7.07;96.61;103981.38;4879618;29;19915;-88
2021/12/18 10:41:55;;;;;;;;;;;;;;;7.03;96.50;103974.22;4864400;29;20296;-88
2021/12/18 10:44:20;;;;;;;;;;;;;;;7.01;96.93;103979.41;4879857;29;19941;-88
2021/12/18 10:46:46;;;;;;;;;;;;;;;7.02;96.40;103978.59;4879973;29;19916;-88
2021/12/18 10:49:13;;;;;;;;;;;;;;;7.03;97.10;103976.84;4879766;29;19915;-87
2021/12/18 10:51:39;;;;;;;;;;;;;;;7.02;97.03;103972.38;4864131;29;19924;-88
2021/12/18 10:54:25;;;;;;;;;;;;;;;7.03;96.97;103974.22;4848970;29;19946;-88
2021/12/18 10:56:51;;;;;;;;;;;;;;;7.02;96.73;103977.66;4878950;29;19958;-88
2021/12/18 10:59:21;;;;;;;;;;;;;;;6.99;96.85;103977.53;4876412;29;19924;-88
2021/12/18 11:01:51;;;;;;;;;;;;;;;6.93;96.49;103972.00;4876290;29;19924;-88
2021/12/18 11:04:27;;;;;;;;;;;;;;;6.87;96.58;103970.00;4860888;29;19939;-88
2021/12/18 11:06:55;;;;;;;;;;;;;;;6.85;96.12;103967.31;4861117;29;19916;-88
2021/12/18 11:09:28;;;;;;;;;;;;;;;6.85;97.12;103980.47;4862223;29;20026;-88
2021/12/18 11:14:41;;;;;;;;;;;;;;;6.83;96.80;103973.34;4876252;29;19916;-88
2021/12/18 11:17:10;;;;;;;;;;;;;;;6.82;96.46;103971.53;4860974;29;19916;-88
2021/12/18 11:19:35;;;;;;;;;;;;;;;6.79;96.99;103979.31;4876202;29;19920;-88
2021/12/18 11:22:03;;;;;;;;;;;;;;;6.80;96.97;103973.19;4876111;29;20265;-88
2021/12/18 11:24:37;;;;;;;;;;;;;;;6.77;95.88;103967.78;4876120;29;19955;-88
2021/12/18 11:27:07;;;;;;;;;;;;;;;6.75;96.34;103978.28;4875930;29;19916;-88
2021/12/18 11:29:40;;;;;;;;;;;;;;;6.77;96.30;103970.44;4875681;29;19916;-88
2021/12/18 11:32:10;;;;;;;;;;;;;;;6.75;96.36;103970.38;4861860;29;19916;-88
2021/12/18 11:34:36;;;;;;;;;;;;;;;6.74;96.35;103968.56;4876188;29;19920;-87
2021/12/18 11:37:05;;;;;;;;;;;;;;;6.77;96.95;103966.06;4844877;29;20383;-88
2021/12/18 11:39:31;;;;;;;;;;;;;;;6.78;96.66;103962.59;4861690;29;19924;-88
2021/12/18 11:41:56;;;;;;;;;;;;;;;6.79;96.70;103968.75;4860694;29;20317;-88
2021/12/18 11:44:33;;;;;;;;;;;;;;;6.79;96.45;103963.50;4875853;29;19923;-87
2021/12/18 11:47:18;;;;;;;;;;;;;;;6.76;96.55;103964.25;4861790;29;19915;-87
2021/12/18 11:49:44;;;;;;;;;;;;;;;6.76;96.56;103968.63;4859575;29;19923;-88
2021/12/18 11:52:09;;;;;;;;;;;;;;;6.76;96.69;103959.00;4859967;29;19944;-88
2021/12/18 11:54:49;;;;;;;;;;;;;;;6.75;96.27;103958.91;4875193;29;19920;-88
2021/12/18 11:57:34;;;;;;;;;;;;;;;6.68;95.89;103961.28;4861194;29;19919;-88
2021/12/18 12:00:00;;;;;;;;;;;;;;;6.67;96.95;103954.22;4887208;29;19919;-88
2021/12/18 12:02:41;;;;;;;;;;;;;;;6.66;96.54;103949.78;4861815;29;19935;-88
2021/12/18 12:05:07;;;;;;;;;;;;;;;6.63;96.47;103947.03;4879751;29;20029;-88
2021/12/18 12:07:32;;;;;;;;;;;;;;;6.60;96.26;103948.59;4879541;29;20002;-88
2021/12/18 12:10:20;;;;;;;;;;;;;;;6.61;96.57;103946.06;4862563;29;19920;-88
2021/12/18 12:12:53;;;;;;;;;;;;;;;6.64;96.62;103935.66;4862734;29;19915;-88
2021/12/18 12:15:19;;;;;;;;;;;;;;;6.60;95.83;103940.69;4893817;29;20268;-88
2021/12/18 12:17:55;;;;;;;;;;;;;;;6.54;95.72;103927.28;4878067;29;19919;-88
2021/12/18 12:20:41;;;;;;;;;;;;;;;6.54;96.24;103925.53;4862661;29;19945;-88
2021/12/18 12:23:07;;;;;;;;;;;;;;;6.57;95.85;103928.31;4862333;29;19916;-88
2021/12/18 12:25:35;;;;;;;;;;;;;;;6.57;96.54;103920.41;4893640;29;19923;-87
2021/12/18 12:28:02;;;;;;;;;;;;;;;6.55;96.09;103926.44;4874721;29;19935;-88
2021/12/18 12:30:46;;;;;;;;;;;;;;;6.53;96.53;103917.56;4859355;29;19922;-88
2021/12/18 12:33:21;;;;;;;;;;;;;;;6.52;96.66;103916.66;4874716;29;19922;-87
2021/12/18 12:35:54;;;;;;;;;;;;;;;6.52;96.73;103923.69;4843442;29;19916;-87
2021/12/18 12:38:21;;;;;;;;;;;;;;;6.52;96.64;103921.03;4859138;29;20391;-88
2021/12/18 12:40:48;;;;;;;;;;;;;;;6.53;96.57;103923.75;4859043;29;20298;-87
2021/12/18 12:43:14;;;;;;;;;;;;;;;6.53;96.21;103914.94;4858938;29;19958;-87
2021/12/18 12:45:42;;;;;;;;;;;;;;;6.50;96.17;103920.06;4874246;29;20329;-88
2021/12/18 12:48:07;;;;;;;;;;;;;;;6.50;95.78;103912.16;4859002;29;19951;-87
2021/12/18 12:50:33;;;;;;;;;;;;;;;6.52;96.41;103907.88;4874334;29;20296;-88
2021/12/18 12:53:02;;;;;;;;;;;;;;;6.51;95.79;103908.72;4874066;29;19971;-87
2021/12/18 12:55:28;;;;;;;;;;;;;;;6.52;96.51;103907.88;4874408;29;19920;-87
2021/12/18 12:57:55;;;;;;;;;;;;;;;6.51;96.58;103906.97;4858495;29;20010;-88
2021/12/18 13:00:20;;;;;;;;;;;;;;;6.50;95.80;103904.28;4843285;29;20014;-87
2021/12/18 13:02:54;;;;;;;;;;;;;;;6.50;96.64;103905.16;4858355;29;19923;-87
2021/12/18 13:05:21;;;;;;;;;;;;;;;6.47;96.24;103895.41;4874127;29;19926;-88
2021/12/18 13:07:57;;;;;;;;;;;;;;;6.49;96.11;103900.75;4843129;29;20002;-88
2021/12/18 13:10:24;;;;;;;;;;;;;;;6.43;96.54;103895.22;4858610;29;20001;-87
2021/12/18 13:13:02;;;;;;;;;;;;;;;6.41;95.89;103897.78;4874012;29;19916;-87
2021/12/18 13:15:28;;;;;;;;;;;;;;;6.37;95.90;103903.72;4874135;29;20387;-87
2021/12/18 13:18:06;;;;;;;;;;;;;;;6.37;95.64;103887.03;4843643;29;20024;-87
2021/12/18 13:20:41;;;;;;;;;;;;;;;6.37;96.06;103887.94;4859909;29;19920;-89
2021/12/18 13:23:07;;;;;;;;;;;;;;;6.37;96.27;103881.78;4858057;29;19915;-88
2021/12/18 13:25:32;;;;;;;;;;;;;;;6.38;96.19;103880.94;4842727;29;19991;-88
2021/12/18 13:28:02;;;;;;;;;;;;;;;6.38;96.15;103880.94;4842730;29;19920;-88
2021/12/18 13:30:27;;;;;;;;;;;;;;;6.35;95.87;103880.81;4858030;29;19916;-88
2021/12/18 13:32:52;;;;;;;;;;;;;;;6.33;95.56;103874.56;4857842;29;19967;-88
2021/12/18 13:35:18;;;;;;;;;;;;;;;6.30;96.46;103877.97;4859271;29;19939;-88
2021/12/18 13:37:57;;;;;;;;;;;;;;;6.28;95.70;103869.13;4842814;29;20300;-88